createdAt,value
2019-04-29T00:01:15.475Z,88.66
2019-04-29T00:07:20.153Z,89.77
2019-04-29T00:13:25.736Z,89.88
2019-04-29T00:19:30.287Z,89.62
2019-04-29T00:25:35.119Z,89.08
2019-04-29T00:31:39.690Z,89.68
2019-04-29T00:38:02.142Z,89.96
2019-04-29T00:44:08.695Z,89.71
2019-04-29T00:50:13.384Z,90.45
2019-04-29T00:56:17.939Z,89.76
2019-04-29T01:02:22.556Z,90.21
2019-04-29T01:08:27.538Z,90.40
2019-04-29T01:14:32.086Z,90.11
2019-04-29T01:20:36.631Z,89.93
2019-04-29T01:26:56.230Z,90.65
2019-04-29T01:33:00.898Z,89.82
2019-04-29T01:39:09.311Z,90.18
2019-04-29T01:45:14.077Z,90.45
2019-04-29T01:51:18.646Z,91.01
2019-04-29T01:57:23.198Z,90.52
2019-04-29T02:03:27.794Z,90.63
2019-04-29T02:09:36.394Z,90.43
2019-04-29T02:15:40.940Z,91.33
2019-04-29T02:21:47.118Z,91.18
2019-04-29T02:27:51.667Z,92.18
2019-04-29T02:33:56.211Z,91.42
2019-04-29T02:40:02.398Z,91.28
2019-04-29T02:46:07.066Z,90.79
2019-04-29T02:52:11.807Z,90.54
2019-04-29T02:58:20.747Z,89.69
2019-04-29T03:04:29.901Z,90.18
2019-04-29T03:10:34.443Z,89.11
2019-04-29T03:16:39.812Z,89.43
2019-04-29T03:22:46.369Z,90.56
2019-04-29T03:28:50.910Z,91.80
2019-04-29T03:34:55.465Z,90.69
2019-04-29T03:40:59.999Z,90.97
2019-04-29T03:47:04.793Z,90.45
2019-04-29T03:53:09.398Z,90.93
2019-04-29T03:59:13.948Z,90.94
2019-04-29T04:05:20.701Z,91.11
2019-04-29T04:11:25.241Z,91.54
2019-04-29T04:17:31.449Z,90.82
2019-04-29T04:23:36.023Z,90.78
2019-04-29T04:29:40.554Z,89.97
2019-04-29T04:35:45.105Z,90.39
2019-04-29T04:41:49.665Z,90.34
2019-04-29T04:47:54.373Z,90.92
2019-04-29T04:53:58.910Z,90.58
2019-04-29T05:00:06.537Z,89.07
2019-04-29T05:06:11.176Z,88.89
2019-04-29T05:12:15.715Z,88.94
2019-04-29T05:18:20.334Z,88.91
2019-04-29T05:24:24.953Z,88.55
2019-04-29T05:30:29.893Z,87.83
2019-04-29T05:36:38.178Z,87.04
2019-04-29T05:42:43.471Z,87.51
2019-04-29T05:48:48.192Z,87.74
2019-04-29T05:54:52.848Z,87.81
2019-04-29T06:01:04.765Z,87.55
2019-04-29T06:07:09.309Z,87.34
2019-04-29T06:13:13.866Z,86.22
2019-04-29T06:19:18.425Z,86.26
2019-04-29T06:25:22.959Z,84.60
2019-04-29T06:31:27.501Z,82.76
2019-04-29T06:37:32.057Z,83.40
2019-04-29T06:43:36.594Z,82.22
2019-04-29T06:49:41.218Z,81.35
2019-04-29T06:55:45.772Z,80.32
2019-04-29T07:01:50.323Z,77.71
2019-04-29T07:07:54.911Z,74.30
2019-04-29T07:13:59.487Z,75.00
2019-04-29T07:20:05.386Z,74.63
2019-04-29T07:26:09.951Z,75.22
2019-04-29T07:32:14.509Z,75.00
2019-04-29T07:38:19.117Z,75.09
2019-04-29T07:44:27.443Z,74.37
2019-04-29T07:50:31.857Z,74.46
2019-04-29T07:56:37.811Z,71.26
2019-04-29T08:02:42.765Z,71.66
2019-04-29T08:08:54.671Z,72.68
2019-04-29T08:14:58.626Z,72.27
2019-04-29T08:21:01.404Z,73.67
2019-04-29T08:27:06.095Z,71.93
2019-04-29T08:33:12.089Z,72.42
2019-04-29T08:39:16.957Z,74.98
2019-04-29T08:45:22.226Z,73.56
2019-04-29T08:51:26.863Z,74.78
2019-04-29T08:57:31.798Z,74.43
2019-04-29T09:03:40.350Z,74.63
2019-04-29T09:09:43.986Z,71.76
2019-04-29T09:15:48.546Z,71.67
2019-04-29T09:21:57.374Z,71.84
2019-04-29T09:28:03.657Z,75.19
2019-04-29T09:34:08.233Z,76.01
2019-04-29T09:40:26.769Z,75.11
2019-04-29T09:46:34.591Z,76.57
2019-04-29T09:52:39.320Z,75.70
2019-04-29T09:58:43.963Z,76.15
2019-04-29T10:05:08.664Z,76.79
2019-04-29T10:11:13.795Z,74.69
2019-04-29T10:17:18.149Z,76.39
2019-04-29T10:23:22.941Z,77.58
2019-04-29T10:29:29.147Z,75.92
2019-04-29T10:35:33.868Z,79.50
2019-04-29T10:41:41.609Z,80.90
2019-04-29T10:47:54.211Z,80.56
2019-04-29T10:53:58.897Z,80.91
2019-04-29T11:00:23.483Z,81.61
2019-04-29T11:06:31.439Z,81.63
2019-04-29T11:12:34.926Z,81.91
2019-04-29T11:18:39.966Z,81.43
2019-04-29T11:24:50.517Z,81.73
2019-04-29T11:30:55.411Z,81.52
2019-04-29T11:37:00.531Z,80.44
2019-04-29T11:43:10.808Z,81.93
2019-04-29T11:49:15.582Z,82.33
2019-04-29T11:55:20.298Z,83.46
2019-04-29T12:01:37.979Z,84.07
2019-04-29T12:07:34.081Z,84.77
2019-04-29T12:13:40.474Z,85.22
2019-04-29T12:19:49.445Z,86.88
2019-04-29T12:25:54.013Z,86.37
2019-04-29T12:32:00.284Z,87.07
2019-04-29T12:38:22.725Z,87.00
2019-04-29T12:44:39.653Z,88.41
2019-04-29T12:50:41.589Z,88.72
2019-04-29T12:56:47.638Z,88.83
2019-04-29T13:03:01.786Z,90.18
2019-04-29T13:09:17.965Z,91.30
2019-04-29T13:15:22.378Z,91.73
2019-04-29T13:21:27.134Z,91.94
2019-04-29T13:27:31.769Z,91.27
2019-04-29T13:33:36.350Z,91.53
2019-04-29T13:39:40.972Z,92.33
2019-04-29T13:45:52.939Z,91.22
2019-04-29T13:51:59.128Z,93.08
2019-04-29T13:58:04.022Z,93.28
2019-04-29T14:04:24.380Z,93.17
2019-04-29T14:10:22.900Z,93.18
2019-04-29T14:16:27.521Z,93.44
2019-04-29T14:22:32.329Z,93.43
2019-04-29T14:28:37.046Z,94.03
2019-04-29T14:34:43.336Z,92.54
2019-04-29T14:40:47.892Z,93.58
2019-04-29T14:47:00.000Z,94.87
2019-04-29T14:53:04.621Z,94.71
2019-04-29T14:59:09.173Z,94.79
2019-04-29T15:05:14.078Z,95.76
2019-04-29T15:11:31.341Z,95.65
2019-04-29T15:17:27.062Z,96.46
2019-04-29T15:23:32.966Z,98.12
2019-04-29T15:29:37.670Z,97.82
2019-04-29T15:35:42.363Z,98.66
2019-04-29T15:41:47.087Z,98.82
2019-04-29T15:47:51.731Z,98.14
2019-04-29T15:53:56.274Z,99.03
2019-04-29T16:00:02.051Z,99.25
2019-04-29T16:06:20.789Z,99.31
2019-04-29T16:12:25.938Z,99.46
2019-04-29T16:18:30.487Z,99.13
2019-04-29T16:24:38.227Z,99.45
2019-04-29T16:30:41.490Z,99.97
2019-04-29T16:36:49.822Z,99.13
2019-04-29T16:43:03.179Z,99.39
2019-04-29T16:49:07.962Z,98.28
2019-04-29T16:55:12.682Z,98.00
2019-04-29T17:01:17.308Z,97.99
2019-04-29T17:07:21.950Z,97.53
2019-04-29T17:13:26.585Z,96.57
2019-04-29T17:19:31.302Z,96.66
2019-04-29T17:25:35.886Z,96.03
2019-04-29T17:31:40.954Z,96.43
2019-04-29T17:37:46.277Z,95.10
2019-04-29T17:43:53.330Z,95.67
2019-04-29T17:50:01.982Z,95.84
2019-04-29T17:56:25.341Z,95.53
2019-04-29T18:02:48.157Z,94.67
2019-04-29T18:08:54.993Z,94.96
2019-04-29T18:14:59.576Z,94.24
2019-04-29T18:21:12.912Z,94.72
2019-04-29T18:27:19.125Z,95.23
2019-04-29T18:33:29.874Z,95.19
2019-04-29T18:39:31.616Z,95.11
2019-04-29T18:45:37.861Z,94.71
2019-04-29T18:51:42.417Z,94.10
2019-04-29T18:57:47.049Z,94.12
2019-04-29T19:03:56.189Z,94.67
2019-04-29T19:10:00.810Z,95.14
2019-04-29T19:16:10.366Z,95.57
2019-04-29T19:22:11.684Z,95.67
2019-04-29T19:28:25.212Z,94.62
2019-04-29T19:34:22.643Z,95.37
2019-04-29T19:40:30.653Z,95.35
2019-04-29T19:46:38.269Z,96.02
2019-04-29T19:52:39.770Z,96.43
2019-04-29T19:58:44.686Z,96.95
2019-04-29T20:04:59.570Z,97.81
2019-04-29T20:11:13.753Z,98.66
2019-04-29T20:17:30.541Z,99.13
2019-04-29T20:23:38.462Z,99.63
2019-04-29T20:29:40.285Z,100.00
2019-04-29T20:35:49.077Z,100.00
2019-04-29T20:41:51.386Z,99.71
2019-04-29T20:47:56.424Z,99.14
2019-04-29T20:54:09.259Z,99.01
2019-04-29T21:00:19.953Z,98.66
2019-04-29T21:06:22.236Z,98.06
2019-04-29T21:12:41.419Z,98.47
2019-04-29T21:18:52.963Z,98.93
2019-04-29T21:24:53.952Z,99.13
2019-04-29T21:30:58.852Z,99.33
2019-04-29T21:37:10.058Z,99.59
2019-04-29T21:43:21.654Z,98.68
2019-04-29T21:49:26.273Z,98.33
2019-04-29T21:55:30.827Z,98.18
2019-04-29T22:01:37.446Z,98.71
2019-04-29T22:07:45.971Z,98.31
2019-04-29T22:13:48.009Z,98.97
2019-04-29T22:19:52.557Z,98.86
2019-04-29T22:25:57.182Z,98.55
2019-04-29T22:32:01.796Z,98.93
2019-04-29T22:38:07.874Z,98.41
2019-04-29T22:44:21.285Z,97.44
2019-04-29T22:50:20.949Z,97.20
2019-04-29T22:56:27.631Z,97.34
2019-04-29T23:02:31.839Z,96.17
2019-04-29T23:08:38.099Z,95.13
2019-04-29T23:14:44.407Z,95.71
2019-04-29T23:21:08.652Z,95.38
2019-04-29T23:27:16.337Z,96.41
2019-04-29T23:33:22.995Z,97.10
2019-04-29T23:39:26.031Z,97.45
2019-04-29T23:45:30.570Z,96.72
2019-04-29T23:51:37.753Z,96.58
2019-04-29T23:58:02.925Z,97.09
